N222HL KIND-KRDU
Flight info
| Callsign | N222HL |
|---|---|
| Flight time | 1h 14m |
| Altitude | 41000 |
| Route | DAWNN1 IIU Q50 CUBIM KPASS ALDAN4 |
| Aircraft | CL60/M-SBDE1E2E3FGHIJ1J4J5J7M3RWXYZ/LB1V1D1 |
Departure
| Time | 2026-05-05 23:04 |
|---|---|
| Airport | Indianapolis International Airport (KIND) |
Arrival
| Time | 2026-05-06 00:18 |
|---|---|
| Airport | Raleigh-Durham International Airport (KRDU) |
| Time | Latitude | Longitude | Altitude | Speed | Heading |
|---|---|---|---|---|---|
| 2026-05-05 22:37 | 39.72604 | -86.27287 | 788 ft | 0 kts | 224° |
| 2026-05-05 22:57 | 39.72604 | -86.27288 | 788 ft | 2 kts | 218° |
| 2026-05-05 22:57 | 39.72566 | -86.27247 | 787 ft | 6 kts | 131° |
| 2026-05-05 22:57 | 39.72530 | -86.27223 | 787 ft | 0 kts | 178° |
| 2026-05-05 22:58 | 39.72457 | -86.27222 | 787 ft | 16 kts | 180° |
| 2026-05-05 22:58 | 39.72373 | -86.27187 | 786 ft | 12 kts | 158° |
| 2026-05-05 22:59 | 39.72292 | -86.27249 | 787 ft | 19 kts | 225° |
| 2026-05-05 22:59 | 39.72179 | -86.27398 | 787 ft | 24 kts | 226° |
| 2026-05-05 22:59 | 39.72052 | -86.27556 | 786 ft | 27 kts | 224° |
| 2026-05-05 22:59 | 39.71908 | -86.27740 | 787 ft | 29 kts | 225° |
| 2026-05-05 23:00 | 39.71619 | -86.28133 | 788 ft | 24 kts | 242° |
| 2026-05-05 23:00 | 39.71527 | -86.28326 | 789 ft | 26 kts | 224° |
| 2026-05-05 23:00 | 39.71390 | -86.28500 | 789 ft | 28 kts | 224° |
| 2026-05-05 23:01 | 39.71244 | -86.28685 | 790 ft | 30 kts | 224° |
| 2026-05-05 23:01 | 39.71092 | -86.28877 | 792 ft | 31 kts | 224° |
| 2026-05-05 23:01 | 39.70931 | -86.29082 | 793 ft | 32 kts | 225° |
| 2026-05-05 23:01 | 39.70765 | -86.29299 | 793 ft | 34 kts | 223° |
| 2026-05-05 23:02 | 39.70581 | -86.29485 | 793 ft | 32 kts | 199° |
| 2026-05-05 23:02 | 39.70400 | -86.29663 | 794 ft | 33 kts | 225° |
| 2026-05-05 23:02 | 39.70229 | -86.29881 | 794 ft | 35 kts | 224° |
| 2026-05-05 23:02 | 39.70059 | -86.30101 | 792 ft | 26 kts | 225° |
| 2026-05-05 23:03 | 39.69958 | -86.30226 | 792 ft | 14 kts | 226° |
| 2026-05-05 23:03 | 39.69955 | -86.30330 | 789 ft | 9 kts | 312° |
| 2026-05-05 23:03 | 39.70011 | -86.30397 | 789 ft | 14 kts | 336° |
| 2026-05-05 23:03 | 39.70095 | -86.30354 | 789 ft | 13 kts | 45° |
| 2026-05-05 23:04 | 39.70282 | -86.30116 | 790 ft | 84 kts | 44° |
| 2026-05-05 23:04 | 39.70932 | -86.29286 | 868 ft | 166 kts | 42° |
| 2026-05-05 23:04 | 39.71753 | -86.28065 | 1683 ft | 192 kts | 59° |
| 2026-05-05 23:04 | 39.72277 | -86.26472 | 2818 ft | 202 kts | 64° |
| 2026-05-05 23:05 | 39.72813 | -86.24782 | 3963 ft | 208 kts | 65° |
| 2026-05-05 23:05 | 39.73373 | -86.23029 | 4304 ft | 218 kts | 68° |
| 2026-05-05 23:05 | 39.73867 | -86.20976 | 4780 ft | 257 kts | 83° |
| 2026-05-05 23:05 | 39.73510 | -86.18718 | 6075 ft | 265 kts | 120° |
| 2026-05-05 23:06 | 39.72346 | -86.16978 | 7413 ft | 264 kts | 150° |
| 2026-05-05 23:06 | 39.70640 | -86.16235 | 8607 ft | 264 kts | 184° |
| 2026-05-05 23:06 | 39.68899 | -86.16712 | 9918 ft | 264 kts | 202° |
| 2026-05-05 23:06 | 39.67182 | -86.17503 | 11162 ft | 272 kts | 204° |
| 2026-05-05 23:07 | 39.65388 | -86.18318 | 11842 ft | 278 kts | 204° |
| 2026-05-05 23:07 | 39.63540 | -86.19151 | 12149 ft | 278 kts | 205° |
| 2026-05-05 23:07 | 39.61676 | -86.19991 | 12440 ft | 294 kts | 205° |
| 2026-05-05 23:07 | 39.59762 | -86.20851 | 13780 ft | 293 kts | 205° |
| 2026-05-05 23:08 | 39.57901 | -86.21682 | 15174 ft | 287 kts | 206° |
| 2026-05-05 23:08 | 39.56033 | -86.22521 | 16274 ft | 289 kts | 206° |
| 2026-05-05 23:08 | 39.54121 | -86.23381 | 17218 ft | 296 kts | 206° |
| 2026-05-05 23:08 | 39.52169 | -86.24258 | 18180 ft | 301 kts | 207° |
| 2026-05-05 23:09 | 39.50187 | -86.25149 | 19052 ft | 307 kts | 207° |
| 2026-05-05 23:09 | 39.48180 | -86.26048 | 19930 ft | 311 kts | 207° |
| 2026-05-05 23:09 | 39.46138 | -86.26962 | 20750 ft | 315 kts | 207° |
| 2026-05-05 23:09 | 39.44042 | -86.27900 | 21568 ft | 320 kts | 207° |
| 2026-05-05 23:10 | 39.41940 | -86.28838 | 22398 ft | 322 kts | 206° |
| 2026-05-05 23:10 | 39.39813 | -86.29787 | 23157 ft | 327 kts | 206° |
| 2026-05-05 23:10 | 39.37657 | -86.30750 | 23910 ft | 332 kts | 206° |
| 2026-05-05 23:10 | 39.35387 | -86.31438 | 24668 ft | 348 kts | 194° |
| 2026-05-05 23:11 | 39.32910 | -86.31341 | 25308 ft | 364 kts | 185° |
| 2026-05-05 23:11 | 39.30356 | -86.31046 | 25946 ft | 371 kts | 185° |
| 2026-05-05 23:11 | 39.27787 | -86.30756 | 26593 ft | 376 kts | 185° |
| 2026-05-05 23:11 | 39.25165 | -86.30462 | 27264 ft | 380 kts | 186° |
| 2026-05-05 23:12 | 39.22498 | -86.30164 | 27824 ft | 386 kts | 186° |
| 2026-05-05 23:12 | 39.19786 | -86.29863 | 28364 ft | 392 kts | 186° |
| 2026-05-05 23:12 | 39.17063 | -86.29557 | 28900 ft | 397 kts | 187° |
| 2026-05-05 23:12 | 39.14271 | -86.29246 | 29348 ft | 404 kts | 186° |
| 2026-05-05 23:13 | 39.11476 | -86.28934 | 29853 ft | 408 kts | 187° |
| 2026-05-05 23:13 | 39.08598 | -86.28614 | 30332 ft | 412 kts | 187° |
| 2026-05-05 23:13 | 39.05765 | -86.28297 | 30877 ft | 414 kts | 187° |
| 2026-05-05 23:13 | 39.02861 | -86.27971 | 31414 ft | 415 kts | 188° |
| 2026-05-05 23:14 | 38.99951 | -86.27647 | 31839 ft | 419 kts | 188° |
| 2026-05-05 23:14 | 38.96987 | -86.27321 | 32211 ft | 424 kts | 188° |
| 2026-05-05 23:14 | 38.93990 | -86.26991 | 32545 ft | 429 kts | 188° |
| 2026-05-05 23:14 | 38.90989 | -86.26658 | 32978 ft | 431 kts | 189° |
| 2026-05-05 23:15 | 38.87967 | -86.26320 | 33463 ft | 430 kts | 189° |
| 2026-05-05 23:15 | 38.84911 | -86.25982 | 33845 ft | 434 kts | 189° |
| 2026-05-05 23:15 | 38.81839 | -86.25642 | 34318 ft | 434 kts | 189° |
| 2026-05-05 23:15 | 38.78799 | -86.25300 | 34949 ft | 431 kts | 189° |
| 2026-05-05 23:16 | 38.75790 | -86.24964 | 35475 ft | 429 kts | 189° |
| 2026-05-05 23:16 | 38.72797 | -86.24632 | 35957 ft | 428 kts | 189° |
| 2026-05-05 23:16 | 38.69822 | -86.24303 | 36398 ft | 427 kts | 190° |
| 2026-05-05 23:16 | 38.66817 | -86.23873 | 36787 ft | 434 kts | 185° |
| 2026-05-05 23:17 | 38.63842 | -86.23106 | 37139 ft | 445 kts | 179° |
| 2026-05-05 23:17 | 38.60837 | -86.21937 | 37517 ft | 455 kts | 173° |
| 2026-05-05 23:17 | 38.57853 | -86.20335 | 37875 ft | 466 kts | 166° |
| 2026-05-05 23:17 | 38.54986 | -86.18316 | 38104 ft | 479 kts | 159° |
| 2026-05-05 23:18 | 38.52235 | -86.15800 | 38449 ft | 490 kts | 150° |
| 2026-05-05 23:18 | 38.49715 | -86.12812 | 38781 ft | 499 kts | 141° |
| 2026-05-05 23:18 | 38.47365 | -86.09527 | 39052 ft | 502 kts | 139° |
| 2026-05-05 23:18 | 38.45043 | -86.06252 | 39317 ft | 502 kts | 139° |
| 2026-05-05 23:19 | 38.42692 | -86.02943 | 39564 ft | 503 kts | 140° |
| 2026-05-05 23:19 | 38.40361 | -85.99665 | 39888 ft | 502 kts | 139° |
| 2026-05-05 23:19 | 38.38035 | -85.96397 | 40173 ft | 501 kts | 139° |
| 2026-05-05 23:19 | 38.35686 | -85.93100 | 40535 ft | 498 kts | 140° |
| 2026-05-05 23:20 | 38.33371 | -85.89852 | 40820 ft | 497 kts | 139° |
| 2026-05-05 23:20 | 38.31030 | -85.86576 | 40831 ft | 502 kts | 140° |
| 2026-05-05 23:20 | 38.26281 | -85.79945 | 40841 ft | 510 kts | 139° |
| 2026-05-05 23:21 | 38.21435 | -85.73189 | 40834 ft | 519 kts | 139° |
| 2026-05-05 23:21 | 38.16530 | -85.66361 | 40840 ft | 526 kts | 139° |
| 2026-05-05 23:22 | 38.11593 | -85.59422 | 40837 ft | 536 kts | 135° |
| 2026-05-05 23:22 | 38.07429 | -85.51417 | 40831 ft | 549 kts | 123° |
| 2026-05-05 23:23 | 38.03571 | -85.43020 | 40833 ft | 554 kts | 123° |
| 2026-05-05 23:23 | 37.99669 | -85.34557 | 40831 ft | 557 kts | 124° |
| 2026-05-05 23:24 | 37.95743 | -85.26063 | 40828 ft | 560 kts | 123° |
| 2026-05-05 23:24 | 37.91790 | -85.17533 | 40843 ft | 563 kts | 124° |
| 2026-05-05 23:25 | 37.87820 | -85.08990 | 40847 ft | 567 kts | 123° |
| 2026-05-05 23:25 | 37.83803 | -85.00368 | 40845 ft | 571 kts | 123° |
| 2026-05-05 23:26 | 37.79740 | -84.91670 | 40849 ft | 577 kts | 123° |
| 2026-05-05 23:26 | 37.75653 | -84.82943 | 40848 ft | 582 kts | 123° |
| 2026-05-05 23:27 | 37.71502 | -84.74103 | 40867 ft | 585 kts | 123° |
| 2026-05-05 23:27 | 37.67361 | -84.65264 | 40876 ft | 585 kts | 122° |
| 2026-05-05 23:28 | 37.63209 | -84.56422 | 40887 ft | 585 kts | 122° |
| 2026-05-05 23:28 | 37.59050 | -84.47592 | 40880 ft | 584 kts | 122° |
| 2026-05-05 23:29 | 37.54903 | -84.38810 | 40887 ft | 583 kts | 122° |
| 2026-05-05 23:29 | 37.50751 | -84.30039 | 40895 ft | 582 kts | 123° |
| 2026-05-05 23:30 | 37.47277 | -84.22735 | 40889 ft | 582 kts | 123° |
| 2026-05-05 23:30 | 37.42401 | -84.12571 | 40908 ft | 581 kts | 123° |
| 2026-05-05 23:31 | 37.38186 | -84.03812 | 40898 ft | 581 kts | 123° |
| 2026-05-05 23:31 | 37.34031 | -83.95200 | 40905 ft | 580 kts | 123° |
| 2026-05-05 23:32 | 37.29818 | -83.86490 | 40905 ft | 580 kts | 123° |
| 2026-05-05 23:32 | 37.25575 | -83.77740 | 40912 ft | 580 kts | 123° |
| 2026-05-05 23:33 | 37.21389 | -83.69129 | 40905 ft | 579 kts | 123° |
| 2026-05-05 23:33 | 37.17192 | -83.60520 | 40904 ft | 580 kts | 122° |
| 2026-05-05 23:34 | 37.12976 | -83.51896 | 40914 ft | 580 kts | 122° |
| 2026-05-05 23:34 | 37.08793 | -83.43359 | 40925 ft | 579 kts | 123° |
| 2026-05-05 23:35 | 37.04563 | -83.34750 | 40925 ft | 580 kts | 123° |
| 2026-05-05 23:35 | 37.00307 | -83.26109 | 40933 ft | 579 kts | 123° |
| 2026-05-05 23:36 | 36.96086 | -83.17551 | 40929 ft | 580 kts | 123° |
| 2026-05-05 23:36 | 36.91848 | -83.08969 | 40926 ft | 580 kts | 123° |
| 2026-05-05 23:37 | 36.88068 | -82.99977 | 40935 ft | 580 kts | 111° |
| 2026-05-05 23:37 | 36.85767 | -82.90397 | 40935 ft | 577 kts | 101° |
| 2026-05-05 23:38 | 36.83912 | -82.80630 | 40927 ft | 577 kts | 101° |
| 2026-05-05 23:38 | 36.82056 | -82.70933 | 40940 ft | 577 kts | 100° |
| 2026-05-05 23:39 | 36.80189 | -82.61217 | 40961 ft | 576 kts | 100° |
| 2026-05-05 23:39 | 36.78323 | -82.51557 | 40962 ft | 576 kts | 101° |
| 2026-05-05 23:40 | 36.76443 | -82.41863 | 40984 ft | 575 kts | 101° |
| 2026-05-05 23:40 | 36.74548 | -82.32136 | 40995 ft | 575 kts | 101° |
| 2026-05-05 23:41 | 36.72651 | -82.22447 | 41014 ft | 574 kts | 101° |
| 2026-05-05 23:41 | 36.70764 | -82.12855 | 41015 ft | 573 kts | 101° |
| 2026-05-05 23:42 | 36.68867 | -82.03251 | 41026 ft | 573 kts | 101° |
| 2026-05-05 23:42 | 36.67026 | -81.93541 | 41005 ft | 571 kts | 96° |
| 2026-05-05 23:43 | 36.66356 | -81.83870 | 41007 ft | 561 kts | 83° |
| 2026-05-05 23:43 | 36.67162 | -81.74322 | 41034 ft | 549 kts | 71° |
| 2026-05-05 23:44 | 36.69132 | -81.65186 | 41016 ft | 544 kts | 65° |
| 2026-05-05 23:44 | 36.71224 | -81.56177 | 41004 ft | 543 kts | 65° |
| 2026-05-05 23:45 | 36.73322 | -81.47115 | 40998 ft | 543 kts | 65° |
| 2026-05-05 23:45 | 36.75401 | -81.38096 | 41023 ft | 542 kts | 65° |
| 2026-05-05 23:46 | 36.77474 | -81.29071 | 41052 ft | 541 kts | 66° |
| 2026-05-05 23:46 | 36.79536 | -81.20063 | 41034 ft | 541 kts | 66° |
| 2026-05-05 23:47 | 36.81585 | -81.11079 | 41029 ft | 542 kts | 66° |
| 2026-05-05 23:47 | 36.83633 | -81.02062 | 41019 ft | 541 kts | 66° |
| 2026-05-05 23:48 | 36.85672 | -80.93050 | 41008 ft | 540 kts | 66° |
| 2026-05-05 23:48 | 36.87709 | -80.84010 | 41002 ft | 541 kts | 66° |
| 2026-05-05 23:49 | 36.89742 | -80.74958 | 41003 ft | 540 kts | 66° |
| 2026-05-05 23:49 | 36.91754 | -80.65964 | 40988 ft | 540 kts | 66° |
| 2026-05-05 23:50 | 36.93765 | -80.56934 | 41024 ft | 538 kts | 66° |
| 2026-05-05 23:50 | 36.95769 | -80.47878 | 41055 ft | 539 kts | 67° |
| 2026-05-05 23:51 | 36.97704 | -80.38808 | 41021 ft | 542 kts | 66° |
| 2026-05-05 23:51 | 36.99623 | -80.29753 | 40989 ft | 540 kts | 66° |
| 2026-05-05 23:52 | 37.02047 | -80.21066 | 40960 ft | 524 kts | 60° |
| 2026-05-05 23:52 | 37.03301 | -80.16886 | 40996 ft | 502 kts | 60° |
| 2026-05-05 23:52 | 37.04472 | -80.12884 | 40902 ft | 483 kts | 60° |
| 2026-05-05 23:53 | 37.05604 | -80.08967 | 40652 ft | 468 kts | 60° |
| 2026-05-05 23:53 | 37.06706 | -80.05092 | 40137 ft | 459 kts | 60° |
| 2026-05-05 23:53 | 37.07745 | -80.01379 | 39439 ft | 457 kts | 60° |
| 2026-05-05 23:53 | 37.08797 | -79.97603 | 38492 ft | 458 kts | 60° |
| 2026-05-05 23:54 | 37.09842 | -79.93837 | 37694 ft | 456 kts | 60° |
| 2026-05-05 23:54 | 37.10903 | -79.90059 | 36781 ft | 457 kts | 60° |
| 2026-05-05 23:54 | 37.11958 | -79.86322 | 35891 ft | 459 kts | 60° |
| 2026-05-05 23:54 | 37.13024 | -79.82562 | 35021 ft | 459 kts | 60° |
| 2026-05-05 23:55 | 37.14109 | -79.78771 | 33969 ft | 463 kts | 60° |
| 2026-05-05 23:55 | 37.15216 | -79.74996 | 33034 ft | 465 kts | 60° |
| 2026-05-05 23:55 | 37.16375 | -79.71225 | 32454 ft | 457 kts | 60° |
| 2026-05-05 23:55 | 37.17522 | -79.67595 | 31994 ft | 447 kts | 60° |
| 2026-05-05 23:56 | 37.18692 | -79.63969 | 31446 ft | 440 kts | 60° |
| 2026-05-05 23:56 | 37.19753 | -79.60454 | 30906 ft | 439 kts | 70° |
| 2026-05-05 23:56 | 37.20078 | -79.56619 | 30346 ft | 442 kts | 89° |
| 2026-05-05 23:56 | 37.19675 | -79.52799 | 29786 ft | 438 kts | 103° |
| 2026-05-05 23:57 | 37.18681 | -79.49238 | 29231 ft | 432 kts | 115° |
| 2026-05-05 23:57 | 37.17176 | -79.46042 | 28565 ft | 426 kts | 128° |
| 2026-05-05 23:57 | 37.15229 | -79.43301 | 27868 ft | 420 kts | 140° |
| 2026-05-05 23:57 | 37.12911 | -79.41100 | 27251 ft | 410 kts | 152° |
| 2026-05-05 23:58 | 37.10450 | -79.39403 | 26725 ft | 401 kts | 156° |
| 2026-05-05 23:58 | 37.08000 | -79.37797 | 26201 ft | 395 kts | 156° |
| 2026-05-05 23:58 | 37.05587 | -79.36212 | 25685 ft | 395 kts | 156° |
| 2026-05-05 23:58 | 37.03146 | -79.34611 | 25173 ft | 395 kts | 157° |
| 2026-05-05 23:59 | 37.00712 | -79.33014 | 24654 ft | 392 kts | 156° |
| 2026-05-05 23:59 | 36.98324 | -79.31446 | 24353 ft | 378 kts | 157° |
| 2026-05-05 23:59 | 36.96061 | -79.29957 | 24243 ft | 361 kts | 157° |
| 2026-05-05 23:59 | 36.93862 | -79.28513 | 23918 ft | 352 kts | 158° |
| 2026-05-06 00:00 | 36.91703 | -79.27100 | 23483 ft | 348 kts | 158° |
| 2026-05-06 00:00 | 36.89584 | -79.25716 | 22981 ft | 345 kts | 158° |
| 2026-05-06 00:00 | 36.87410 | -79.24297 | 22257 ft | 350 kts | 158° |
| 2026-05-06 00:00 | 36.85254 | -79.22895 | 21539 ft | 357 kts | 158° |
| 2026-05-06 00:01 | 36.83033 | -79.21448 | 20949 ft | 358 kts | 157° |
| 2026-05-06 00:01 | 36.80822 | -79.20006 | 20440 ft | 356 kts | 157° |
| 2026-05-06 00:01 | 36.78633 | -79.18578 | 19990 ft | 353 kts | 157° |
| 2026-05-06 00:01 | 36.76493 | -79.17183 | 19553 ft | 349 kts | 157° |
| 2026-05-06 00:02 | 36.74348 | -79.15785 | 19124 ft | 344 kts | 158° |
| 2026-05-06 00:02 | 36.72219 | -79.14399 | 18687 ft | 340 kts | 158° |
| 2026-05-06 00:02 | 36.70133 | -79.13042 | 18263 ft | 337 kts | 158° |
| 2026-05-06 00:02 | 36.68087 | -79.11712 | 17815 ft | 334 kts | 158° |
| 2026-05-06 00:03 | 36.66040 | -79.10383 | 17379 ft | 330 kts | 158° |
| 2026-05-06 00:03 | 36.63994 | -79.09055 | 16914 ft | 328 kts | 158° |
| 2026-05-06 00:03 | 36.61984 | -79.07751 | 16479 ft | 325 kts | 158° |
| 2026-05-06 00:03 | 36.59985 | -79.06454 | 16013 ft | 323 kts | 158° |
| 2026-05-06 00:04 | 36.57990 | -79.05163 | 15571 ft | 321 kts | 158° |
| 2026-05-06 00:04 | 36.56010 | -79.03880 | 15144 ft | 318 kts | 158° |
| 2026-05-06 00:04 | 36.54062 | -79.02620 | 14701 ft | 316 kts | 158° |
| 2026-05-06 00:04 | 36.52094 | -79.01347 | 14263 ft | 314 kts | 158° |
| 2026-05-06 00:05 | 36.48233 | -78.98852 | 13385 ft | 311 kts | 158° |
| 2026-05-06 00:05 | 36.46344 | -78.97633 | 12972 ft | 308 kts | 158° |
| 2026-05-06 00:05 | 36.44426 | -78.96395 | 12557 ft | 305 kts | 158° |
| 2026-05-06 00:06 | 36.42548 | -78.95184 | 12146 ft | 302 kts | 158° |
| 2026-05-06 00:06 | 36.40714 | -78.93999 | 11758 ft | 299 kts | 157° |
| 2026-05-06 00:06 | 36.39022 | -78.92467 | 11363 ft | 303 kts | 140° |
| 2026-05-06 00:06 | 36.37557 | -78.90599 | 10968 ft | 300 kts | 139° |
| 2026-05-06 00:07 | 36.36120 | -78.88758 | 10547 ft | 299 kts | 139° |
| 2026-05-06 00:07 | 36.34679 | -78.86916 | 10134 ft | 291 kts | 139° |
| 2026-05-06 00:07 | 36.33297 | -78.85149 | 9753 ft | 283 kts | 139° |
| 2026-05-06 00:07 | 36.31944 | -78.83421 | 9393 ft | 274 kts | 139° |
| 2026-05-06 00:08 | 36.30652 | -78.81773 | 9046 ft | 265 kts | 139° |
| 2026-05-06 00:08 | 36.29382 | -78.80168 | 8709 ft | 256 kts | 140° |
| 2026-05-06 00:08 | 36.28149 | -78.78619 | 8359 ft | 249 kts | 140° |
| 2026-05-06 00:08 | 36.26958 | -78.77110 | 8159 ft | 238 kts | 140° |
| 2026-05-06 00:09 | 36.25806 | -78.75645 | 7749 ft | 234 kts | 140° |
| 2026-05-06 00:09 | 36.24675 | -78.74211 | 7476 ft | 233 kts | 140° |
| 2026-05-06 00:09 | 36.23536 | -78.72770 | 7158 ft | 232 kts | 140° |
| 2026-05-06 00:09 | 36.22421 | -78.71357 | 6872 ft | 230 kts | 140° |
| 2026-05-06 00:10 | 36.21287 | -78.69923 | 6571 ft | 229 kts | 140° |
| 2026-05-06 00:10 | 36.20175 | -78.68515 | 6281 ft | 227 kts | 139° |
| 2026-05-06 00:10 | 36.19081 | -78.67130 | 6018 ft | 224 kts | 139° |
| 2026-05-06 00:10 | 36.17993 | -78.65740 | 5981 ft | 225 kts | 139° |
| 2026-05-06 00:11 | 36.16899 | -78.64337 | 5987 ft | 225 kts | 139° |
| 2026-05-06 00:11 | 36.15817 | -78.62952 | 5986 ft | 224 kts | 139° |
| 2026-05-06 00:11 | 36.14730 | -78.61559 | 5993 ft | 224 kts | 139° |
| 2026-05-06 00:11 | 36.13633 | -78.60175 | 5996 ft | 223 kts | 142° |
| 2026-05-06 00:12 | 36.12300 | -78.59291 | 6000 ft | 216 kts | 167° |
| 2026-05-06 00:12 | 36.10834 | -78.58954 | 5988 ft | 210 kts | 183° |
| 2026-05-06 00:12 | 36.09401 | -78.59270 | 5992 ft | 209 kts | 195° |
| 2026-05-06 00:12 | 36.07978 | -78.59712 | 5749 ft | 211 kts | 195° |
| 2026-05-06 00:13 | 36.06559 | -78.60143 | 5414 ft | 207 kts | 195° |
| 2026-05-06 00:13 | 36.05179 | -78.60561 | 5066 ft | 204 kts | 195° |
| 2026-05-06 00:13 | 36.03794 | -78.60982 | 4722 ft | 203 kts | 195° |
| 2026-05-06 00:13 | 36.02423 | -78.61397 | 4374 ft | 202 kts | 195° |
| 2026-05-06 00:14 | 36.01092 | -78.61871 | 4029 ft | 200 kts | 204° |
| 2026-05-06 00:14 | 35.99997 | -78.62936 | 3669 ft | 200 kts | 223° |
| 2026-05-06 00:14 | 35.99031 | -78.64170 | 3405 ft | 199 kts | 223° |
| 2026-05-06 00:14 | 35.98057 | -78.65389 | 3127 ft | 199 kts | 222° |
| 2026-05-06 00:15 | 35.97083 | -78.66596 | 2867 ft | 198 kts | 222° |
| 2026-05-06 00:15 | 35.96120 | -78.67792 | 2617 ft | 189 kts | 222° |
| 2026-05-06 00:15 | 35.95235 | -78.68892 | 2389 ft | 176 kts | 221° |
| 2026-05-06 00:15 | 35.94404 | -78.69925 | 2163 ft | 162 kts | 221° |
| 2026-05-06 00:16 | 35.93610 | -78.70903 | 1962 ft | 161 kts | 221° |
| 2026-05-06 00:16 | 35.92812 | -78.71886 | 1756 ft | 160 kts | 220° |
| 2026-05-06 00:16 | 35.92031 | -78.72852 | 1521 ft | 159 kts | 220° |
| 2026-05-06 00:16 | 35.91256 | -78.73811 | 1346 ft | 151 kts | 221° |
| 2026-05-06 00:17 | 35.90601 | -78.74636 | 1192 ft | 119 kts | 221° |
| 2026-05-06 00:17 | 35.90035 | -78.75342 | 1023 ft | 113 kts | 220° |
| 2026-05-06 00:17 | 35.89494 | -78.76006 | 864 ft | 107 kts | 219° |
| 2026-05-06 00:17 | 35.88961 | -78.76653 | 730 ft | 107 kts | 220° |
| 2026-05-06 00:18 | 35.88421 | -78.77312 | 607 ft | 110 kts | 221° |
| 2026-05-06 00:18 | 35.87883 | -78.77981 | 478 ft | 110 kts | 220° |
| 2026-05-06 00:18 | 35.87380 | -78.78598 | 427 ft | 85 kts | 224° |
| 2026-05-06 00:18 | 35.87098 | -78.78943 | 417 ft | 36 kts | 225° |
| 2026-05-06 00:19 | 35.87032 | -78.79082 | 413 ft | 12 kts | 306° |
| 2026-05-06 00:19 | 35.87063 | -78.79131 | 413 ft | 0 kts | 317° |
| 2026-05-06 00:19 | 35.87067 | -78.79137 | 413 ft | 1 kts | 319° |
| 2026-05-06 00:19 | 35.87117 | -78.79124 | 414 ft | 12 kts | 44° |
| 2026-05-06 00:20 | 35.87181 | -78.79041 | 416 ft | 15 kts | 46° |
| 2026-05-06 00:20 | 35.87263 | -78.78938 | 419 ft | 18 kts | 45° |
| 2026-05-06 00:20 | 35.87359 | -78.78823 | 423 ft | 20 kts | 45° |
| 2026-05-06 00:20 | 35.87465 | -78.78693 | 426 ft | 22 kts | 45° |
| 2026-05-06 00:21 | 35.87582 | -78.78543 | 428 ft | 25 kts | 45° |
| 2026-05-06 00:21 | 35.87704 | -78.78394 | 429 ft | 24 kts | 45° |
| 2026-05-06 00:21 | 35.87818 | -78.78252 | 429 ft | 22 kts | 45° |
| 2026-05-06 00:21 | 35.87914 | -78.78158 | 425 ft | 12 kts | 347° |
| 2026-05-06 00:22 | 35.87995 | -78.78239 | 425 ft | 16 kts | 315° |
| 2026-05-06 00:22 | 35.88045 | -78.78252 | 424 ft | 2 kts | 48° |
| 2026-05-06 00:22 | 35.88052 | -78.78243 | 423 ft | 0 kts | 48° |